Time;durP1;ratioP1;P1;durP2;ratioP2;P2;SDS_P1;SDS_P2;PMS_P1;PMS_P2;Temp;Humidity;BMP_temperature;BMP_pressure;BME280_temperature;BME280_humidity;BME280_pressure;Samples;Min_cycle;Max_cycle;Signal;HPM_P1;HPM_P2
2021/11/24 00:01:49;;;;;;;93.57;36.23;;;;;7.00;102281.00;;;;10477053;28;20757;-78
2021/11/24 00:06:51;;;;;;;94.87;36.27;;;;;7.00;102281.00;;;;10477124;28;20288;-78
2021/11/24 00:11:53;;;;;;;98.87;36.87;;;;;7.00;102279.00;;;;10469513;28;20952;-77
2021/11/24 00:16:55;;;;;;;92.90;37.97;;;;;7.00;102271.00;;;;10522049;28;20205;-77
2021/11/24 00:21:57;;;;;;;91.17;39.93;;;;;6.90;102267.00;;;;10505626;28;20193;-78
2021/11/24 00:26:59;;;;;;;84.97;40.73;;;;;6.90;102263.00;;;;10505399;28;20197;-77
2021/11/24 00:32:03;;;;;;;97.27;40.33;;;;;6.80;102271.00;;;;10522163;28;20209;-77
2021/11/24 00:37:06;;;;;;;78.63;38.47;;;;;6.80;102274.00;;;;10488742;28;20572;-77
2021/11/24 00:42:08;;;;;;;93.30;37.43;;;;;6.80;102279.00;;;;10463752;28;20681;-77
2021/11/24 00:47:10;;;;;;;80.40;38.60;;;;;6.80;102269.00;;;;10446741;28;20219;-77
2021/11/24 00:52:12;;;;;;;80.87;36.63;;;;;6.70;102267.00;;;;10447273;28;20219;-77
2021/11/24 00:57:14;;;;;;;94.87;37.60;;;;;6.70;102260.00;;;;10446712;28;20206;-77
2021/11/24 01:02:16;;;;;;;80.83;38.27;;;;;6.70;102263.00;;;;10526925;28;20220;-77
2021/11/24 01:07:18;;;;;;;81.23;36.97;;;;;6.70;102255.00;;;;10466999;28;20815;-77
2021/11/24 01:12:21;;;;;;;75.77;34.63;;;;;6.70;102252.00;;;;10471241;28;20654;-77
2021/11/24 01:17:23;;;;;;;79.60;34.87;;;;;6.70;102253.00;;;;10504409;28;20209;-77
2021/11/24 01:22:25;;;;;;;80.23;36.07;;;;;6.70;102250.00;;;;10504598;28;20235;-77
2021/11/24 01:27:27;;;;;;;91.83;36.07;;;;;6.70;102244.00;;;;10494895;28;20193;-77
2021/11/24 01:32:29;;;;;;;75.87;34.77;;;;;6.60;102246.00;;;;10494857;28;20216;-77
2021/11/24 01:37:32;;;;;;;78.33;35.63;;;;;6.60;102243.00;;;;10507854;28;20276;-77
2021/11/24 01:42:34;;;;;;;75.30;34.67;;;;;6.60;102238.00;;;;10486189;28;20255;-77
2021/11/24 01:47:37;;;;;;;78.03;37.17;;;;;6.60;102237.00;;;;10486181;28;20337;-77
2021/11/24 01:52:39;;;;;;;84.97;38.70;;;;;6.60;102233.00;;;;10485633;28;20198;-77
2021/11/24 01:57:44;;;;;;;74.57;35.90;;;;;6.60;102222.00;;;;10485718;28;20217;-77
2021/11/24 02:02:46;;;;;;;70.80;35.37;;;;;6.60;102211.00;;;;10468644;28;20208;-79
2021/11/24 02:07:49;;;;;;;71.43;33.30;;;;;6.60;102212.00;;;;10456972;28;20584;-79
2021/11/24 02:12:52;;;;;;;74.77;34.33;;;;;6.60;102200.00;;;;10526057;28;20192;-79
2021/11/24 02:17:54;;;;;;;76.40;35.80;;;;;6.60;102193.00;;;;10508449;28;20235;-79
2021/11/24 02:22:56;;;;;;;82.47;35.63;;;;;6.60;102184.00;;;;10541105;28;20836;-80
2021/11/24 02:27:58;;;;;;;82.00;38.20;;;;;6.60;102188.00;;;;10507286;28;20194;-79
2021/11/24 02:33:02;;;;;;;71.43;35.07;;;;;6.60;102175.00;;;;10489455;28;20275;-79
2021/11/24 02:38:06;;;;;;;73.53;36.03;;;;;6.70;102168.00;;;;10513977;28;20225;-79
2021/11/24 02:43:09;;;;;;;75.10;36.43;;;;;6.70;102162.00;;;;10473597;28;20212;-79
2021/11/24 02:48:11;;;;;;;79.77;34.73;;;;;6.70;102164.00;;;;10464768;28;20526;-79
2021/11/24 02:53:13;;;;;;;79.80;35.77;;;;;6.70;102156.00;;;;10497433;28;20660;-79
2021/11/24 02:58:15;;;;;;;63.60;34.87;;;;;6.70;102137.00;;;;10464083;28;20267;-79
2021/11/24 03:03:17;;;;;;;78.10;34.00;;;;;6.70;102149.00;;;;10468442;28;20263;-79
2021/11/24 03:08:19;;;;;;;65.53;34.83;;;;;6.70;102141.00;;;;10489610;28;20266;-79
2021/11/24 03:13:21;;;;;;;74.17;34.60;;;;;6.70;102130.00;;;;10488986;28;20200;-79
2021/11/24 03:18:23;;;;;;;70.23;33.70;;;;;6.70;102131.00;;;;10488780;28;20221;-79
2021/11/24 03:23:25;;;;;;;65.17;34.17;;;;;6.70;102110.00;;;;10521132;28;20192;-79
2021/11/24 03:28:27;;;;;;;76.33;35.50;;;;;6.70;102117.00;;;;10471789;28;20672;-79
2021/11/24 03:33:29;;;;;;;67.07;33.30;;;;;6.70;102088.00;;;;10488344;28;20208;-79
2021/11/24 03:38:31;;;;;;;72.73;34.57;;;;;6.70;102084.00;;;;10492860;28;20209;-79
2021/11/24 03:43:33;;;;;;;64.50;35.00;;;;;6.70;102086.00;;;;10513896;28;20243;-79
2021/11/24 03:48:35;;;;;;;69.73;33.67;;;;;6.70;102090.00;;;;10496114;28;20202;-79
2021/11/24 03:53:40;;;;;;;62.47;32.03;;;;;6.60;102075.00;;;;10465018;28;20653;-79
2021/11/24 03:58:42;;;;;;;69.50;32.87;;;;;6.60;102072.00;;;;10460161;28;20201;-79
2021/11/24 04:03:44;;;;;;;66.20;32.07;;;;;6.60;102069.00;;;;10454683;28;20663;-79
2021/11/24 04:08:45;;;;;;;79.73;37.00;;;;;6.60;102070.00;;;;10501796;28;20259;-79
2021/11/24 04:13:47;;;;;;;82.87;35.27;;;;;6.60;102062.00;;;;10444630;28;20193;-79
2021/11/24 04:18:49;;;;;;;79.37;35.37;;;;;6.60;102054.00;;;;10461657;28;20238;-78
2021/11/24 04:23:51;;;;;;;74.57;33.97;;;;;6.60;102043.00;;;;10462711;28;20200;-79
2021/11/24 04:28:53;;;;;;;84.63;35.60;;;;;6.60;102039.00;;;;10460584;28;20193;-79
2021/11/24 04:33:56;;;;;;;76.10;35.20;;;;;6.60;102046.00;;;;10478234;28;20228;-79
2021/11/24 04:38:57;;;;;;;78.70;34.63;;;;;6.60;102039.00;;;;10477763;28;20209;-79
2021/11/24 04:43:59;;;;;;;94.30;36.97;;;;;6.60;102031.00;;;;10477370;28;20675;-79
2021/11/24 04:49:03;;;;;;;98.03;37.30;;;;;6.60;102034.00;;;;10491602;28;20205;-79
2021/11/24 04:54:05;;;;;;;92.00;36.67;;;;;6.60;102035.00;;;;10485166;28;20209;-79
2021/11/24 04:59:07;;;;;;;94.23;34.97;;;;;6.60;102033.00;;;;10486978;28;20288;-79
2021/11/24 05:04:09;;;;;;;86.43;37.10;;;;;6.60;102017.00;;;;10504480;28;20208;-78
2021/11/24 05:09:11;;;;;;;90.67;35.07;;;;;6.60;102011.00;;;;10517721;28;20258;-79
2021/11/24 05:14:20;;;;;;;109.03;39.23;;;;;6.60;102013.00;;;;10477363;28;20231;-79
2021/11/24 05:19:23;;;;;;;98.37;38.40;;;;;6.60;102013.00;;;;10509956;28;20250;-79
2021/11/24 05:24:25;;;;;;;98.50;37.83;;;;;6.60;102006.00;;;;10509797;28;20303;-78
2021/11/24 05:29:27;;;;;;;89.23;37.23;;;;;6.60;102005.00;;;;10491895;28;20197;-78
2021/11/24 05:34:30;;;;;;;88.73;36.33;;;;;6.60;102002.00;;;;10492737;28;20229;-79
2021/11/24 05:39:34;;;;;;;91.70;37.67;;;;;6.60;101992.00;;;;10441968;28;20205;-79
2021/11/24 05:44:38;;;;;;;89.73;36.60;;;;;6.50;101985.00;;;;10507688;28;20196;-79
2021/11/24 05:49:40;;;;;;;90.67;37.37;;;;;6.60;101987.00;;;;10522046;28;20892;-79
2021/11/24 05:54:42;;;;;;;94.13;35.30;;;;;6.60;101976.00;;;;10487626;28;20236;-79
2021/11/24 05:59:45;;;;;;;74.70;35.60;;;;;6.50;101984.00;;;;10517426;28;20197;-79
2021/11/24 06:04:47;;;;;;;81.23;34.47;;;;;6.50;101976.00;;;;10489995;28;20228;-79
2021/11/24 06:09:49;;;;;;;78.50;35.77;;;;;6.50;101965.00;;;;10478352;28;20197;-79
2021/11/24 06:14:51;;;;;;;86.47;37.50;;;;;6.50;101965.00;;;;10485998;28;20217;-78
2021/11/24 06:19:54;;;;;;;85.30;37.53;;;;;6.50;101958.00;;;;10482386;28;20197;-79
2021/11/24 06:24:59;;;;;;;95.23;40.57;;;;;6.50;101956.00;;;;10464248;28;20205;-79
2021/11/24 06:30:03;;;;;;;84.90;38.53;;;;;6.50;101972.00;;;;10481162;28;20214;-79
2021/11/24 06:35:06;;;;;;;99.47;39.47;;;;;6.50;101949.00;;;;10481013;28;20221;-79
2021/11/24 06:40:09;;;;;;;97.23;40.30;;;;;6.50;101957.00;;;;10473680;28;20212;-79
2021/11/24 06:45:12;;;;;;;158.10;47.37;;;;;6.50;101952.00;;;;10505219;28;20197;-79
2021/11/24 06:50:15;;;;;;;187.53;50.67;;;;;6.60;101954.00;;;;10506875;28;20216;-79
2021/11/24 06:55:17;;;;;;;185.83;49.87;;;;;6.60;101963.00;;;;10505093;28;20227;-79
2021/11/24 07:00:19;;;;;;;206.43;50.93;;;;;6.60;101945.00;;;;10488836;28;20663;-79
2021/11/24 07:05:21;;;;;;;245.23;55.47;;;;;6.60;101952.00;;;;10504225;28;20196;-79
2021/11/24 07:10:23;;;;;;;210.47;53.30;;;;;6.60;101953.00;;;;10478046;28;20251;-79
2021/11/24 07:15:26;;;;;;;203.20;52.57;;;;;6.60;101943.00;;;;10479585;28;20869;-79
2021/11/24 07:20:28;;;;;;;192.93;48.40;;;;;6.60;101948.00;;;;10479236;28;20553;-79
2021/11/24 07:25:32;;;;;;;171.37;45.37;;;;;6.60;101949.00;;;;10478948;28;20206;-79
2021/11/24 07:30:34;;;;;;;160.00;46.60;;;;;6.60;101949.00;;;;10478519;28;20696;-79
2021/11/24 07:35:36;;;;;;;162.87;46.93;;;;;6.70;101947.00;;;;10462610;28;20217;-79
2021/11/24 07:40:39;;;;;;;172.57;47.43;;;;;6.70;101944.00;;;;10491069;28;20668;-79
2021/11/24 07:45:42;;;;;;;200.27;50.63;;;;;6.70;101953.00;;;;10503921;28;20201;-79
2021/11/24 07:50:44;;;;;;;241.13;52.30;;;;;6.70;101942.00;;;;10486641;28;20204;-79
2021/11/24 07:55:46;;;;;;;217.80;52.20;;;;;6.80;101939.00;;;;10470967;28;20274;-79
2021/11/24 08:00:48;;;;;;;197.57;51.00;;;;;6.80;101936.00;;;;10492249;28;20202;-79
2021/11/24 08:05:50;;;;;;;194.33;50.40;;;;;6.80;101929.00;;;;10446238;28;20201;-79
2021/11/24 08:10:52;;;;;;;206.00;52.63;;;;;6.90;101917.00;;;;10493039;28;20317;-79
2021/11/24 08:15:54;;;;;;;199.37;52.40;;;;;7.00;101924.00;;;;10488446;28;20266;-79
2021/11/24 08:20:56;;;;;;;189.97;51.20;;;;;7.00;101915.00;;;;10508720;28;20201;-79
2021/11/24 08:25:58;;;;;;;191.10;50.87;;;;;7.10;101917.00;;;;10442307;28;20232;-79
2021/11/24 08:31:00;;;;;;;192.60;51.57;;;;;7.20;101909.00;;;;10483735;28;20312;-79
2021/11/24 08:36:04;;;;;;;186.90;52.10;;;;;7.30;101907.00;;;;10467202;28;20542;-79
2021/11/24 08:41:06;;;;;;;206.83;52.43;;;;;7.40;101903.00;;;;10454412;28;20204;-79
2021/11/24 08:46:08;;;;;;;172.33;48.53;;;;;7.40;101906.00;;;;10453895;28;20308;-79
2021/11/24 08:51:10;;;;;;;180.30;47.47;;;;;7.50;101909.00;;;;10481137;28;20209;-79
2021/11/24 08:56:12;;;;;;;185.20;51.33;;;;;7.60;101903.00;;;;10495237;28;20671;-79
2021/11/24 09:01:14;;;;;;;170.77;49.80;;;;;7.70;101896.00;;;;10510456;28;20204;-79
2021/11/24 09:06:16;;;;;;;167.23;48.77;;;;;7.80;101898.00;;;;10508632;28;20231;-79
2021/11/24 09:11:18;;;;;;;169.90;47.13;;;;;7.90;101887.00;;;;10488951;28;20775;-79
2021/11/24 09:16:21;;;;;;;169.17;48.97;;;;;7.90;101890.00;;;;10490016;28;20287;-79
2021/11/24 09:21:24;;;;;;;160.47;46.17;;;;;7.90;101886.00;;;;10514344;28;20196;-79
2021/11/24 09:26:30;;;;;;;152.37;43.87;;;;;8.00;101888.00;;;;10494882;28;20263;-79
2021/11/24 09:31:33;;;;;;;140.37;45.80;;;;;8.10;101873.00;;;;10486068;28;20224;-78
2021/11/24 09:36:35;;;;;;;156.87;47.77;;;;;8.20;101865.00;;;;10489019;28;20208;-78
2021/11/24 09:41:45;;;;;;;139.20;44.93;;;;;8.30;101869.00;;;;10509394;28;20235;-78
2021/11/24 09:46:51;;;;;;;128.03;40.97;;;;;8.40;101861.00;;;;10458158;28;20207;-78
2021/11/24 09:51:53;;;;;;;126.77;41.50;;;;;8.40;101857.00;;;;10502279;28;20197;-78
2021/11/24 09:56:56;;;;;;;126.17;41.50;;;;;8.40;101853.00;;;;10488551;28;20216;-79
2021/11/24 10:01:58;;;;;;;112.67;40.57;;;;;8.40;101846.00;;;;10487155;28;20201;-78
2021/11/24 10:07:00;;;;;;;123.60;42.90;;;;;8.40;101844.00;;;;10489716;28;20194;-78
2021/11/24 10:12:04;;;;;;;119.23;42.53;;;;;8.40;101844.00;;;;10488305;28;20196;-79
2021/11/24 10:17:25;;;;;;;107.50;40.70;;;;;8.50;101841.00;;;;10480738;28;20806;-79
2021/11/24 10:22:28;;;;;;;118.07;44.03;;;;;8.60;101824.00;;;;10490894;28;20976;-78
2021/11/24 10:27:49;;;;;;;115.63;43.43;;;;;8.50;101803.00;;;;10509845;28;20196;-79
2021/11/24 10:32:53;;;;;;;112.60;43.80;;;;;8.60;101797.00;;;;10498279;28;20221;-79
2021/11/24 10:38:15;;;;;;;88.20;37.67;;;;;8.70;101789.00;;;;10478997;28;20221;-78
2021/11/24 10:43:17;;;;;;;93.17;37.97;;;;;8.70;101797.00;;;;10483281;28;20198;-78
2021/11/24 10:48:27;;;;;;;100.63;39.23;;;;;8.80;101787.00;;;;10467746;28;20220;-78
2021/11/24 10:53:30;;;;;;;79.43;38.73;;;;;8.80;101782.00;;;;10473545;28;20663;-79
2021/11/24 10:58:37;;;;;;;79.60;36.43;;;;;8.80;101779.00;;;;10486075;28;20343;-79
2021/11/24 11:03:44;;;;;;;87.87;39.13;;;;;8.90;101777.00;;;;10518661;28;20201;-78
2021/11/24 11:08:58;;;;;;;81.93;36.23;;;;;9.00;101759.00;;;;10483040;28;20192;-79
2021/11/24 11:14:21;;;;;;;79.17;37.07;;;;;9.10;101749.00;;;;10508486;28;20264;-78
2021/11/24 11:19:42;;;;;;;81.97;37.23;;;;;9.20;101748.00;;;;10491166;28;20560;-79
2021/11/24 11:24:44;;;;;;;74.90;37.57;;;;;9.10;101733.00;;;;10493608;27;20204;-79
2021/11/24 11:29:46;;;;;;;68.83;35.23;;;;;9.20;101720.00;;;;10488443;28;20307;-79
2021/11/24 11:34:48;;;;;;;80.03;39.33;;;;;9.20;101710.00;;;;10482414;28;20221;-79
2021/11/24 11:39:50;;;;;;;76.33;37.83;;;;;9.30;101698.00;;;;10465918;28;20205;-79
2021/11/24 11:44:53;;;;;;;74.10;37.80;;;;;9.30;101678.00;;;;10499991;28;20652;-78
2021/11/24 11:50:38;;;;;;;82.77;40.53;;;;;9.00;101674.00;;;;10483148;28;20638;-79
2021/11/24 11:55:40;;;;;;;77.30;35.43;;;;;9.00;101659.00;;;;10501041;28;20848;-79
2021/11/24 12:00:42;;;;;;;73.27;36.30;;;;;9.00;101649.00;;;;10503422;28;20200;-79
2021/11/24 12:06:19;;;;;;;73.63;36.90;;;;;8.90;101640.00;;;;10446947;28;20723;-79
2021/11/24 12:11:21;;;;;;;67.30;34.70;;;;;8.90;101635.00;;;;10491711;28;20204;-79
2021/11/24 12:16:43;;;;;;;64.73;33.10;;;;;8.90;101624.00;;;;10505073;28;20317;-79
2021/11/24 12:21:51;;;;;;;72.37;35.97;;;;;8.80;101613.00;;;;10441525;28;20327;-78
2021/11/24 12:26:54;;;;;;;70.27;34.73;;;;;8.80;101601.00;;;;10441832;28;20606;-79
2021/11/24 12:32:03;;;;;;;67.00;33.00;;;;;8.70;101593.00;;;;10429890;28;20668;-79
2021/11/24 12:37:23;;;;;;;65.57;33.13;;;;;8.70;101593.00;;;;10489151;28;20239;-79
2021/11/24 12:42:26;;;;;;;58.97;30.40;;;;;8.70;101574.00;;;;10498204;28;20240;-78
2021/11/24 12:47:31;;;;;;;65.20;31.17;;;;;8.70;101560.00;;;;10514273;28;20306;-78
2021/11/24 12:52:33;;;;;;;66.30;32.00;;;;;8.70;101554.00;;;;10493778;28;20201;-78
2021/11/24 12:57:35;;;;;;;63.57;30.97;;;;;8.70;101543.00;;;;10494741;28;20232;-78
2021/11/24 13:02:37;;;;;;;58.40;29.73;;;;;8.60;101531.00;;;;10486976;28;20200;-78
2021/11/24 13:07:39;;;;;;;64.77;31.10;;;;;8.70;101523.00;;;;10463337;28;20606;-78
2021/11/24 13:12:42;;;;;;;60.67;30.87;;;;;8.70;101512.00;;;;10468188;28;20193;-78
2021/11/24 13:17:50;;;;;;;64.13;30.77;;;;;8.80;101511.00;;;;10486007;28;20212;-78
2021/11/24 13:22:55;;;;;;;57.50;29.17;;;;;8.80;101494.00;;;;10471015;28;20240;-78
2021/11/24 13:28:06;;;;;;;58.43;30.53;;;;;8.80;101498.00;;;;10534403;28;20287;-78
2021/11/24 13:33:09;;;;;;;61.90;31.47;;;;;8.70;101492.00;;;;10511642;28;20262;-78
2021/11/24 13:38:26;;;;;;;57.67;30.07;;;;;8.60;101483.00;;;;10497894;28;20225;-79
2021/11/24 13:43:33;;;;;;;59.93;29.47;;;;;8.50;101474.00;;;;10469279;28;20184;-80
2021/11/24 13:48:35;;;;;;;62.63;32.33;;;;;8.50;101459.00;;;;10500326;28;20213;-79
2021/11/24 13:53:39;;;;;;;61.23;30.80;;;;;8.40;101448.00;;;;10477344;28;20581;-79
2021/11/24 13:58:52;;;;;;;61.23;31.67;;;;;8.40;101444.00;;;;10471878;28;20217;-78
2021/11/24 14:03:58;;;;;;;62.13;33.43;;;;;8.30;101433.00;;;;10480313;28;20197;-78
2021/11/24 14:09:22;;;;;;;56.90;32.47;;;;;8.20;101420.00;;;;10458921;28;20201;-79
2021/11/24 14:14:26;;;;;;;62.83;32.60;;;;;8.10;101415.00;;;;10481652;28;20270;-79
2021/11/24 14:19:33;;;;;;;61.10;31.73;;;;;8.00;101409.00;;;;10508583;28;20223;-79
2021/11/24 14:24:35;;;;;;;67.73;35.37;;;;;8.00;101404.00;;;;10516883;27;20930;-79
2021/11/24 14:29:37;;;;;;;62.13;32.43;;;;;7.90;101386.00;;;;10495591;28;20713;-79
2021/11/24 14:34:39;;;;;;;65.33;31.70;;;;;7.80;101373.00;;;;10501274;28;20739;-79
2021/11/24 14:39:41;;;;;;;60.60;31.83;;;;;7.80;101358.00;;;;10468089;28;20638;-78
2021/11/24 14:44:43;;;;;;;68.03;34.10;;;;;7.70;101361.00;;;;10502947;28;20243;-78
2021/11/24 14:49:49;;;;;;;64.03;34.93;;;;;7.60;101348.00;;;;10481194;28;20193;-79
2021/11/24 14:54:51;;;;;;;65.67;34.07;;;;;7.60;101339.00;;;;10505012;28;20203;-79
2021/11/24 14:59:53;;;;;;;69.50;34.77;;;;;7.60;101330.00;;;;10455525;28;20556;-79
2021/11/24 15:04:55;;;;;;;74.83;34.87;;;;;7.50;101330.00;;;;10457265;28;20814;-80
2021/11/24 15:10:18;;;;;;;69.07;34.30;;;;;7.50;101321.00;;;;10482292;28;20227;-79
2021/11/24 15:15:40;;;;;;;69.57;34.17;;;;;7.50;101318.00;;;;10473222;28;20904;-79
2021/11/24 15:20:43;;;;;;;67.33;34.97;;;;;7.50;101303.00;;;;10484187;28;20246;-79
2021/11/24 15:25:45;;;;;;;64.53;33.10;;;;;7.40;101301.00;;;;10517412;28;20242;-79
2021/11/24 15:30:51;;;;;;;61.90;32.63;;;;;7.40;101297.00;;;;10505570;28;20221;-79
2021/11/24 15:35:53;;;;;;;67.00;32.97;;;;;7.30;101281.00;;;;10469861;28;20593;-80
2021/11/24 15:40:55;;;;;;;63.50;33.57;;;;;7.30;101267.00;;;;10474487;28;20196;-79
2021/11/24 15:45:59;;;;;;;65.10;33.47;;;;;7.30;101272.00;;;;10513248;28;20204;-79
2021/11/24 15:51:04;;;;;;;70.17;35.10;;;;;7.20;101253.00;;;;10477946;28;20228;-78
2021/11/24 15:56:06;;;;;;;71.03;34.93;;;;;7.20;101263.00;;;;10483642;28;20215;-79
2021/11/24 16:01:08;;;;;;;71.63;34.53;;;;;7.20;101248.00;;;;10500212;28;20572;-79
2021/11/24 16:06:11;;;;;;;74.57;34.23;;;;;7.20;101238.00;;;;10510777;28;20209;-79
2021/11/24 16:11:15;;;;;;;68.90;34.83;;;;;7.10;101218.00;;;;10495320;28;20201;-79
2021/11/24 16:16:19;;;;;;;74.33;34.40;;;;;7.10;101218.00;;;;10491149;28;20216;-79
2021/11/24 16:21:22;;;;;;;69.60;34.70;;;;;7.10;101214.00;;;;10484593;28;20698;-79
2021/11/24 16:26:24;;;;;;;70.20;34.50;;;;;7.10;101205.00;;;;10465079;28;20560;-79
2021/11/24 16:31:26;;;;;;;73.03;37.00;;;;;7.00;101212.00;;;;10480547;28;20217;-79
2021/11/24 16:36:29;;;;;;;74.17;36.00;;;;;7.00;101202.00;;;;10480184;28;20221;-79
2021/11/24 16:41:31;;;;;;;74.50;36.23;;;;;7.00;101212.00;;;;10454013;28;20790;-80
2021/11/24 16:46:34;;;;;;;77.83;38.83;;;;;6.90;101209.00;;;;10496151;28;20196;-80
2021/11/24 16:51:36;;;;;;;82.67;39.07;;;;;6.90;101210.00;;;;10495008;28;20235;-79
2021/11/24 16:56:39;;;;;;;79.57;39.70;;;;;6.90;101205.00;;;;10482352;28;20228;-80
2021/11/24 17:01:41;;;;;;;79.90;38.70;;;;;6.90;101197.00;;;;10483252;28;20273;-79
2021/11/24 17:06:43;;;;;;;84.43;41.60;;;;;6.90;101191.00;;;;10469107;28;20209;-79
2021/11/24 17:11:45;;;;;;;72.93;37.27;;;;;6.80;101179.00;;;;10460301;28;20411;-79
2021/11/24 17:16:49;;;;;;;78.97;37.70;;;;;6.80;101174.00;;;;10483576;28;20291;-79
2021/11/24 17:21:51;;;;;;;77.13;37.60;;;;;6.70;101165.00;;;;10490071;28;20865;-80
2021/11/24 17:26:53;;;;;;;76.00;38.00;;;;;6.80;101173.00;;;;10502701;28;20193;-79
2021/11/24 17:31:55;;;;;;;79.67;39.40;;;;;6.80;101182.00;;;;10505009;28;20220;-80
2021/11/24 17:36:58;;;;;;;82.93;42.93;;;;;6.70;101171.00;;;;10502581;28;20311;-79
2021/11/24 17:42:00;;;;;;;83.60;40.50;;;;;6.70;101166.00;;;;10483674;28;20201;-79
2021/11/24 17:47:06;;;;;;;84.93;42.90;;;;;6.70;101159.00;;;;10478090;28;20212;-79
2021/11/24 17:52:08;;;;;;;86.67;42.27;;;;;6.70;101154.00;;;;10515317;28;20201;-79
2021/11/24 17:57:11;;;;;;;89.80;41.33;;;;;6.70;101151.00;;;;10507880;28;20587;-79
2021/11/24 18:02:13;;;;;;;85.47;42.40;;;;;6.60;101159.00;;;;10505119;28;20266;-79
2021/11/24 18:07:16;;;;;;;93.83;45.47;;;;;6.60;101160.00;;;;10491360;28;20193;-79
2021/11/24 18:12:18;;;;;;;87.83;45.57;;;;;6.60;101157.00;;;;10501946;28;20204;-79
2021/11/24 18:17:20;;;;;;;88.73;43.77;;;;;6.60;101154.00;;;;10469881;28;20217;-79
2021/11/24 18:22:22;;;;;;;92.93;43.43;;;;;6.60;101150.00;;;;10487525;28;20209;-79
2021/11/24 18:27:24;;;;;;;91.23;44.43;;;;;6.60;101141.00;;;;10506359;28;20201;-79
2021/11/24 18:32:27;;;;;;;96.63;39.60;;;;;6.50;101149.00;;;;10490043;28;20225;-79
2021/11/24 18:37:30;;;;;;;82.57;36.77;;;;;6.60;101164.00;;;;10493309;28;20320;-79
2021/11/24 18:42:32;;;;;;;72.63;34.13;;;;;6.50;101163.00;;;;10457839;28;20205;-79
2021/11/24 18:47:35;;;;;;;74.10;33.53;;;;;6.50;101158.00;;;;10483184;28;20194;-79
2021/11/24 18:52:38;;;;;;;63.03;31.40;;;;;6.50;101152.00;;;;10464715;28;20845;-78
2021/11/24 18:57:40;;;;;;;68.97;31.67;;;;;6.50;101142.00;;;;10487716;28;20219;-79
2021/11/24 19:02:43;;;;;;;68.87;34.10;;;;;6.50;101135.00;;;;10494662;28;20200;-79
2021/11/24 19:07:45;;;;;;;73.10;34.07;;;;;6.50;101122.00;;;;10514320;28;20275;-79
2021/11/24 19:12:48;;;;;;;78.63;31.73;;;;;6.40;101113.00;;;;10487835;28;20192;-79
2021/11/24 19:17:49;;;;;;;71.30;33.17;;;;;6.40;101096.00;;;;10511096;28;20204;-79
2021/11/24 19:22:51;;;;;;;66.30;29.57;;;;;6.40;101102.00;;;;10525215;28;20589;-79
2021/11/24 19:27:54;;;;;;;63.10;31.07;;;;;6.40;101094.00;;;;10507149;28;20484;-79
2021/11/24 19:32:59;;;;;;;71.13;33.20;;;;;6.30;101099.00;;;;10502989;28;20273;-79
2021/11/24 19:38:02;;;;;;;70.70;31.97;;;;;6.30;101092.00;;;;10503131;28;20266;-79
2021/11/24 19:43:04;;;;;;;69.60;33.37;;;;;6.30;101081.00;;;;10518108;28;20201;-79
2021/11/24 19:48:06;;;;;;;69.30;32.60;;;;;6.20;101083.00;;;;10502982;28;20211;-79
2021/11/24 19:53:09;;;;;;;73.87;33.70;;;;;6.20;101073.00;;;;10500033;28;20200;-79
2021/11/24 19:58:11;;;;;;;68.77;32.17;;;;;6.20;101051.00;;;;10455267;28;20212;-79
2021/11/24 20:03:14;;;;;;;71.93;32.97;;;;;6.10;101046.00;;;;10502794;28;20204;-79
2021/11/24 20:08:16;;;;;;;75.67;31.00;;;;;6.10;101047.00;;;;10491237;28;20197;-79
2021/11/24 20:13:18;;;;;;;63.43;30.60;;;;;6.10;101052.00;;;;10483323;28;20238;-80
2021/11/24 20:18:20;;;;;;;62.27;29.33;;;;;6.00;101048.00;;;;10492702;28;20225;-79
2021/11/24 20:23:22;;;;;;;59.07;28.20;;;;;6.00;101040.00;;;;10485138;28;20208;-79
2021/11/24 20:28:25;;;;;;;64.83;29.40;;;;;6.00;101035.00;;;;10483140;28;20689;-79
2021/11/24 20:33:27;;;;;;;61.97;29.27;;;;;6.00;101031.00;;;;10470669;28;20213;-79
2021/11/24 20:38:29;;;;;;;58.70;28.37;;;;;6.00;101027.00;;;;10483098;28;20266;-80
2021/11/24 20:43:32;;;;;;;60.87;29.10;;;;;5.90;101029.00;;;;10500651;28;20311;-79
2021/11/24 20:48:34;;;;;;;62.87;29.70;;;;;5.80;101016.00;;;;10484386;28;20250;-79
2021/11/24 20:53:36;;;;;;;58.93;28.83;;;;;5.80;101006.00;;;;10485049;28;20197;-79
2021/11/24 20:58:39;;;;;;;57.47;27.57;;;;;5.70;100995.00;;;;10501305;28;20232;-79
2021/11/24 21:03:41;;;;;;;46.77;21.13;;;;;5.60;101002.00;;;;10484642;28;20719;-79
2021/11/24 21:08:43;;;;;;;45.23;21.73;;;;;5.60;100999.00;;;;10468298;28;20209;-79
2021/11/24 21:13:46;;;;;;;40.43;21.90;;;;;5.60;101004.00;;;;10534819;28;20201;-79
2021/11/24 21:18:49;;;;;;;50.07;25.20;;;;;5.50;100998.00;;;;10490554;28;20239;-79
2021/11/24 21:23:51;;;;;;;52.90;23.13;;;;;5.50;101004.00;;;;10498715;28;20668;-80
2021/11/24 21:28:53;;;;;;;48.10;24.33;;;;;5.40;100985.00;;;;10468139;28;20212;-79
2021/11/24 21:33:55;;;;;;;43.70;20.23;;;;;5.40;100986.00;;;;10475651;28;20259;-79
2021/11/24 21:38:57;;;;;;;36.20;19.87;;;;;5.30;100979.00;;;;10458793;28;20753;-79
2021/11/24 21:43:59;;;;;;;40.17;19.93;;;;;5.20;100975.00;;;;10523219;28;20207;-79
2021/11/24 21:49:01;;;;;;;40.43;21.47;;;;;5.10;100980.00;;;;10508178;28;20193;-80
2021/11/24 21:54:03;;;;;;;39.80;20.67;;;;;5.00;100974.00;;;;10491931;28;20197;-79
2021/11/24 21:59:05;;;;;;;41.80;21.10;;;;;4.90;100972.00;;;;10487288;28;20209;-79
2021/11/24 22:04:07;;;;;;;41.73;21.33;;;;;4.80;100971.00;;;;10483863;28;20204;-79
2021/11/24 22:14:32;;;;;;;40.57;20.93;;;;;4.70;100964.00;;;;10519627;28;20651;-79
2021/11/24 22:19:34;;;;;;;39.80;21.03;;;;;4.60;100958.00;;;;10506401;28;20305;-79
2021/11/24 22:24:36;;;;;;;36.77;20.80;;;;;4.60;100948.00;;;;10482716;27;20212;-79
2021/11/24 22:29:38;;;;;;;38.27;20.67;;;;;4.50;100950.00;;;;10457039;28;20212;-79
2021/11/24 22:34:40;;;;;;;38.53;20.93;;;;;4.40;100936.00;;;;10538321;28;20227;-79
2021/11/24 22:39:42;;;;;;;40.57;21.27;;;;;4.20;100935.00;;;;10522743;28;20217;-79
2021/11/24 22:44:44;;;;;;;38.53;20.63;;;;;4.10;100930.00;;;;10460548;28;20660;-79
2021/11/24 22:49:46;;;;;;;47.23;22.70;;;;;4.00;100926.00;;;;10502338;28;20254;-79
2021/11/24 22:54:48;;;;;;;40.17;22.30;;;;;4.00;100929.00;;;;10538742;28;20204;-79
2021/11/24 22:59:50;;;;;;;40.03;21.00;;;;;3.90;100912.00;;;;10529334;28;20347;-79
2021/11/24 23:04:52;;;;;;;35.47;21.17;;;;;3.90;100905.00;;;;10503302;28;20229;-79
2021/11/24 23:09:54;;;;;;;39.90;21.87;;;;;4.00;100906.00;;;;10481793;28;20208;-79
2021/11/24 23:14:56;;;;;;;40.70;22.63;;;;;3.90;100897.00;;;;10502753;27;20200;-79
2021/11/24 23:19:59;;;;;;;50.17;24.73;;;;;3.80;100897.00;;;;10496919;28;20224;-79
2021/11/24 23:25:00;;;;;;;45.07;22.67;;;;;3.80;100894.00;;;;10503117;28;20215;-79
2021/11/24 23:30:05;;;;;;;39.30;22.20;;;;;3.80;100890.00;;;;10470466;28;20204;-79
2021/11/24 23:35:07;;;;;;;41.03;20.73;;;;;3.80;100896.00;;;;10453816;28;20215;-79
2021/11/24 23:40:11;;;;;;;40.13;21.07;;;;;3.80;100904.00;;;;10470565;28;20695;-79
2021/11/24 23:45:13;;;;;;;37.97;21.03;;;;;3.90;100891.00;;;;10489579;28;20200;-79
2021/11/24 23:50:15;;;;;;;40.77;21.50;;;;;4.00;100899.00;;;;10483286;28;20211;-79
2021/11/24 23:55:17;;;;;;;40.57;21.60;;;;;4.00;100892.00;;;;10518859;28;20188;-79
